Terminal Aerodrome Forecast
Issued by NWS Indianapolis, IN

Home | Current Version | Previous Version | Text Only | Print | Product List | Glossary On
Versions: 1 2 3 4 5 6 7 8 9 10 11 12 13 14 15 16 17 18 19 20 21 22 23 24 25 26
715
FTUS43 KIND 251728
TAFIND
TAF
KIND 251728Z 2518/2624 28018G28KT P6SM SCT025 BKN035
     FM252300 28011G20KT P6SM SCT050
     FM260100 28009KT P6SM SCT080
     FM260600 28005KT P6SM FEW200
     FM261100 22004KT P6SM FEW150
     FM261800 21011G21KT P6SM SCT200=

USA.gov is the U.S. government's official web portal to all federal, state and local government web resources and services.